createdAt,value
2017-11-04T00:01:59.227Z,50.97
2017-11-04T00:04:26.696Z,39.63
2017-11-04T00:06:54.948Z,46.90
2017-11-04T00:09:22.440Z,44.73
2017-11-04T00:11:50.678Z,39.67
2017-11-04T00:14:18.159Z,45.90
2017-11-04T00:16:45.626Z,44.50
2017-11-04T00:19:13.875Z,49.20
2017-11-04T00:21:41.335Z,46.07
2017-11-04T00:24:08.794Z,43.10
2017-11-04T00:26:36.284Z,43.27
2017-11-04T00:29:03.747Z,43.83
2017-11-04T00:31:31.212Z,41.63
2017-11-04T00:33:58.699Z,41.63
2017-11-04T00:36:26.164Z,42.50
2017-11-04T00:38:53.639Z,46.47
2017-11-04T00:41:21.117Z,45.60
2017-11-04T00:43:49.368Z,41.23
2017-11-04T00:46:16.864Z,45.13
2017-11-04T00:48:44.328Z,45.23
2017-11-04T00:51:11.793Z,47.00
2017-11-04T00:53:39.269Z,54.87
2017-11-04T00:56:06.736Z,37.90
2017-11-04T00:58:34.205Z,43.10
2017-11-04T01:01:01.687Z,40.57
2017-11-04T01:03:29.917Z,45.63
2017-11-04T01:05:57.380Z,44.10
2017-11-04T01:08:24.864Z,46.30
2017-11-04T01:10:53.116Z,45.13
2017-11-04T01:13:20.592Z,43.40
2017-11-04T01:15:48.824Z,39.93
2017-11-04T01:18:16.303Z,40.10
2017-11-04T01:20:43.776Z,41.03
2017-11-04T01:23:11.236Z,38.50
2017-11-04T01:25:39.490Z,37.27
2017-11-04T01:28:06.970Z,43.13
2017-11-04T01:30:35.212Z,36.90
2017-11-04T01:33:02.684Z,37.40
2017-11-04T01:35:30.171Z,39.33
2017-11-04T01:37:57.639Z,46.80
2017-11-04T01:40:25.116Z,43.60
2017-11-04T01:42:52.598Z,39.23
2017-11-04T01:45:20.083Z,40.17
2017-11-04T01:47:48.322Z,41.33
2017-11-04T01:50:15.806Z,38.10
2017-11-04T01:52:43.276Z,41.43
2017-11-04T01:55:11.508Z,37.97
2017-11-04T01:57:38.992Z,44.07
2017-11-04T02:00:06.467Z,33.87
2017-11-04T02:02:34.711Z,37.87
2017-11-04T02:05:02.184Z,40.20
2017-11-04T02:07:29.663Z,40.40
2017-11-04T02:09:57.903Z,37.53
2017-11-04T02:12:25.379Z,37.90
2017-11-04T02:14:53.628Z,41.77
2017-11-04T02:17:21.086Z,41.37
2017-11-04T02:19:50.056Z,42.30
2017-11-04T02:22:17.542Z,43.10
2017-11-04T02:24:45.007Z,34.57
2017-11-04T02:27:12.502Z,40.90
2017-11-04T02:29:40.023Z,42.07
2017-11-04T02:32:08.260Z,42.57
2017-11-04T02:34:35.718Z,34.57
2017-11-04T02:37:03.203Z,37.60
2017-11-04T02:39:30.668Z,41.07
2017-11-04T02:41:58.911Z,30.00
2017-11-04T02:44:26.452Z,38.40
2017-11-04T02:46:53.912Z,37.33
2017-11-04T02:49:21.403Z,33.13
2017-11-04T02:51:48.882Z,37.67
2017-11-04T02:54:17.116Z,37.00
2017-11-04T02:56:44.571Z,34.90
2017-11-04T02:59:12.065Z,38.13
2017-11-04T03:01:40.311Z,32.23
2017-11-04T03:04:07.836Z,34.40
2017-11-04T03:06:35.307Z,41.90
2017-11-04T03:09:02.782Z,37.23
2017-11-04T03:11:30.307Z,34.53
2017-11-04T03:13:57.760Z,35.77
2017-11-04T03:16:25.237Z,38.70
2017-11-04T03:18:52.711Z,37.40
2017-11-04T03:21:20.176Z,32.30
2017-11-04T03:23:47.644Z,39.47
2017-11-04T03:26:15.124Z,37.20
2017-11-04T03:28:42.587Z,35.67
2017-11-04T03:31:10.050Z,37.27
2017-11-04T03:33:37.531Z,36.07
2017-11-04T03:36:05.003Z,38.10
2017-11-04T03:38:32.508Z,41.30
2017-11-04T03:40:59.966Z,36.60
2017-11-04T03:43:27.447Z,34.80
2017-11-04T03:45:54.903Z,44.00
2017-11-04T03:48:22.392Z,38.53
2017-11-04T03:50:49.851Z,41.03
2017-11-04T03:53:17.310Z,44.53
2017-11-04T03:55:44.795Z,42.90
2017-11-04T03:58:13.031Z,38.60
2017-11-04T04:00:40.503Z,42.53
2017-11-04T04:03:07.987Z,38.60
2017-11-04T04:05:36.221Z,40.27
2017-11-04T04:08:03.767Z,39.70
2017-11-04T04:10:31.241Z,45.50
2017-11-04T04:12:58.716Z,41.87
2017-11-04T04:15:26.952Z,38.80
2017-11-04T04:17:54.411Z,41.97
2017-11-04T04:20:21.891Z,43.23
2017-11-04T04:22:49.362Z,42.93
2017-11-04T04:25:17.612Z,42.47
2017-11-04T04:27:45.071Z,46.30
2017-11-04T04:30:12.551Z,47.13
2017-11-04T04:32:40.781Z,49.57
2017-11-04T04:35:08.263Z,57.23
2017-11-04T04:37:35.742Z,50.13
2017-11-04T04:40:03.202Z,53.10
2017-11-04T04:42:31.440Z,47.60
2017-11-04T04:44:58.900Z,44.30
2017-11-04T04:47:26.383Z,49.47
2017-11-04T04:49:54.608Z,48.57
2017-11-04T04:52:22.091Z,49.40
2017-11-04T04:54:49.565Z,46.70
2017-11-04T04:57:17.053Z,48.27
2017-11-04T04:59:44.532Z,50.17
2017-11-04T05:02:11.997Z,48.93
2017-11-04T05:04:39.479Z,50.60
2017-11-04T05:07:06.956Z,47.57
2017-11-04T05:09:35.190Z,49.33
2017-11-04T05:12:02.663Z,48.13
2017-11-04T05:14:30.131Z,47.80
2017-11-04T05:16:57.593Z,49.60
2017-11-04T05:19:25.839Z,47.97
2017-11-04T05:21:53.304Z,47.20
2017-11-04T05:24:20.786Z,53.53
2017-11-04T05:26:49.019Z,47.60
2017-11-04T05:29:16.500Z,43.67
2017-11-04T05:31:43.966Z,56.27
2017-11-04T05:34:12.194Z,49.40
2017-11-04T05:36:39.684Z,53.57
2017-11-04T05:39:07.143Z,49.23
2017-11-04T05:41:34.643Z,50.23
2017-11-04T05:44:02.126Z,51.53
2017-11-04T05:46:29.587Z,50.13
2017-11-04T05:48:57.987Z,50.70
2017-11-04T05:51:25.462Z,52.10
2017-11-04T05:53:52.948Z,51.40
2017-11-04T05:56:20.411Z,57.97
2017-11-04T05:58:47.872Z,56.90
2017-11-04T06:01:15.355Z,56.87
2017-11-04T06:03:42.819Z,59.60
2017-11-04T06:06:11.812Z,61.27
2017-11-04T06:08:39.291Z,63.60
2017-11-04T06:11:07.522Z,57.03
2017-11-04T06:13:35.008Z,61.07
2017-11-04T06:16:02.474Z,63.77
2017-11-04T06:18:29.935Z,64.63
2017-11-04T06:20:57.416Z,67.60
2017-11-04T06:23:25.323Z,66.13
2017-11-04T06:25:53.575Z,59.80
2017-11-04T06:28:21.044Z,68.47
2017-11-04T06:30:50.278Z,58.53
2017-11-04T06:33:17.756Z,65.10
2017-11-04T06:35:45.223Z,70.13
2017-11-04T06:38:13.455Z,60.87
2017-11-04T06:40:41.714Z,67.40
2017-11-04T06:43:09.180Z,68.07
2017-11-04T06:45:36.645Z,64.53
2017-11-04T06:48:04.137Z,72.17
2017-11-04T06:50:32.372Z,69.27
2017-11-04T06:52:59.876Z,72.20
2017-11-04T06:55:28.097Z,73.77
2017-11-04T06:57:55.572Z,71.43
2017-11-04T07:00:23.064Z,67.23
2017-11-04T07:02:51.292Z,71.70
2017-11-04T07:05:18.850Z,68.43
2017-11-04T07:07:46.326Z,71.73
2017-11-04T07:10:13.811Z,68.43
2017-11-04T07:12:41.300Z,76.40
2017-11-04T07:15:08.759Z,67.37
2017-11-04T07:17:36.255Z,56.87
2017-11-04T07:20:03.738Z,64.80
2017-11-04T07:22:31.203Z,62.53
2017-11-04T07:24:58.695Z,66.43
2017-11-04T07:27:26.143Z,53.60
2017-11-04T07:29:53.628Z,53.50
2017-11-04T07:32:21.089Z,53.13
2017-11-04T07:34:48.567Z,52.73
2017-11-04T07:37:16.791Z,57.70
2017-11-04T07:39:44.273Z,61.33
2017-11-04T07:42:11.748Z,62.40
2017-11-04T07:44:39.980Z,52.17
2017-11-04T07:47:07.479Z,57.00
2017-11-04T07:49:35.719Z,58.50
2017-11-04T07:52:03.224Z,56.37
2017-11-04T07:54:31.455Z,56.63
2017-11-04T07:56:58.952Z,60.43
2017-11-04T07:59:27.179Z,65.03
2017-11-04T08:01:54.654Z,56.07
2017-11-04T08:04:22.136Z,59.37
2017-11-04T08:06:50.385Z,60.40
2017-11-04T08:09:17.884Z,62.77
2017-11-04T08:11:45.344Z,58.90
2017-11-04T08:14:12.836Z,59.33
2017-11-04T08:16:40.319Z,55.20
2017-11-04T08:19:07.799Z,48.13
2017-11-04T08:21:36.044Z,53.87
2017-11-04T08:24:03.503Z,50.50
2017-11-04T08:26:30.959Z,47.50
2017-11-04T08:28:58.451Z,52.40
2017-11-04T08:31:26.676Z,54.10
2017-11-04T08:33:54.147Z,49.80
2017-11-04T08:36:21.616Z,54.37
2017-11-04T08:38:49.101Z,50.97
2017-11-04T08:41:16.607Z,50.33
2017-11-04T08:43:44.063Z,50.57
2017-11-04T08:46:11.530Z,54.17
2017-11-04T08:48:39.027Z,51.53
2017-11-04T08:51:06.625Z,49.20
2017-11-04T08:53:34.083Z,50.50
2017-11-04T08:56:01.559Z,52.07
2017-11-04T08:58:29.791Z,52.50
2017-11-04T09:00:57.275Z,55.13
2017-11-04T09:03:24.791Z,50.27
2017-11-04T09:05:52.275Z,48.30
2017-11-04T09:08:19.764Z,49.77
2017-11-04T09:10:47.244Z,48.03
2017-11-04T09:13:15.471Z,48.30
2017-11-04T09:15:42.961Z,48.60
2017-11-04T09:18:10.423Z,53.10
2017-11-04T09:20:37.915Z,49.33
2017-11-04T09:23:06.286Z,44.37
2017-11-04T09:25:33.791Z,47.20
2017-11-04T09:28:01.267Z,48.93
2017-11-04T09:30:30.226Z,42.70
2017-11-04T09:32:57.719Z,52.77
2017-11-04T09:35:25.189Z,43.53
2017-11-04T09:37:53.432Z,40.27
2017-11-04T09:40:20.914Z,45.10
2017-11-04T09:42:49.155Z,38.73
2017-11-04T09:45:16.632Z,43.13
2017-11-04T09:47:45.625Z,35.70
2017-11-04T09:50:13.108Z,39.90
2017-11-04T09:52:41.348Z,38.63
2017-11-04T09:55:08.823Z,38.67
2017-11-04T09:57:37.084Z,41.50
2017-11-04T10:00:06.066Z,42.17
2017-11-04T10:02:33.564Z,44.27
2017-11-04T10:05:01.862Z,40.10
2017-11-04T10:07:29.328Z,39.43
2017-11-04T10:09:56.803Z,41.73
2017-11-04T10:12:24.271Z,42.57
2017-11-04T10:14:51.763Z,40.73
2017-11-04T10:17:19.991Z,40.70
2017-11-04T10:19:47.473Z,37.50
2017-11-04T10:22:14.938Z,38.20
2017-11-04T10:24:43.193Z,40.40
2017-11-04T10:27:10.669Z,39.33
2017-11-04T10:29:38.997Z,36.20
2017-11-04T10:32:06.483Z,36.67
2017-11-04T10:34:33.946Z,40.03
2017-11-04T10:37:01.407Z,42.07
2017-11-04T10:39:28.880Z,39.27
2017-11-04T10:41:57.122Z,47.63
2017-11-04T10:44:24.608Z,41.53
2017-11-04T10:46:52.858Z,44.00
2017-11-04T10:49:20.329Z,35.10
2017-11-04T10:51:47.814Z,36.57
2017-11-04T10:54:16.032Z,36.87
2017-11-04T10:56:43.544Z,38.47
2017-11-04T10:59:11.788Z,37.37
2017-11-04T11:01:39.249Z,44.33
2017-11-04T11:04:06.754Z,37.77
2017-11-04T11:06:34.211Z,39.50
2017-11-04T11:09:01.704Z,38.57
2017-11-04T11:11:29.195Z,38.53
2017-11-04T11:13:57.449Z,41.37
2017-11-04T11:16:24.932Z,37.00
2017-11-04T11:18:53.160Z,38.80
2017-11-04T11:21:20.643Z,39.73
2017-11-04T11:23:48.884Z,39.40
2017-11-04T11:26:16.367Z,37.27
2017-11-04T11:28:43.851Z,39.13
2017-11-04T11:31:11.324Z,33.97
2017-11-04T11:33:38.792Z,37.13
2017-11-04T11:36:06.292Z,35.40
2017-11-04T11:38:33.771Z,32.97
2017-11-04T11:41:01.999Z,38.30
2017-11-04T11:43:29.490Z,37.13
2017-11-04T11:45:57.754Z,35.47
2017-11-04T11:48:25.241Z,40.30
2017-11-04T11:50:52.740Z,41.50
2017-11-04T11:53:20.204Z,32.93
2017-11-04T11:55:47.666Z,34.83
2017-11-04T11:58:15.155Z,34.57
2017-11-04T12:00:43.390Z,38.10
2017-11-04T12:03:10.861Z,32.10
2017-11-04T12:05:38.340Z,33.10
2017-11-04T12:08:06.580Z,34.57
2017-11-04T12:10:34.066Z,32.67
2017-11-04T12:13:01.540Z,40.20
2017-11-04T12:15:29.766Z,37.70
2017-11-04T12:17:57.256Z,37.87
2017-11-04T12:20:25.506Z,35.50
2017-11-04T12:22:52.977Z,36.20
2017-11-04T12:25:20.471Z,32.90
2017-11-04T12:27:47.941Z,37.07
2017-11-04T12:30:15.435Z,32.07
2017-11-04T12:32:42.915Z,32.17
2017-11-04T12:35:11.152Z,31.30
2017-11-04T12:37:38.645Z,30.77
2017-11-04T12:40:06.143Z,33.40
2017-11-04T12:42:33.639Z,35.13
2017-11-04T12:45:01.100Z,28.20
2017-11-04T12:47:28.568Z,33.90
2017-11-04T12:49:56.058Z,30.73
2017-11-04T12:52:23.531Z,30.40
2017-11-04T12:54:51.017Z,32.23
2017-11-04T12:57:18.486Z,34.50
2017-11-04T12:59:46.004Z,30.27
2017-11-04T13:02:13.495Z,31.33
2017-11-04T13:04:40.968Z,35.10
2017-11-04T13:07:08.434Z,32.33
2017-11-04T13:09:36.680Z,34.97
2017-11-04T13:12:04.160Z,35.80
2017-11-04T13:14:32.419Z,36.63
2017-11-04T13:16:59.883Z,32.80
2017-11-04T13:19:28.868Z,31.20
2017-11-04T13:21:56.352Z,29.07
2017-11-04T13:24:24.591Z,27.37
2017-11-04T13:26:52.080Z,33.10
2017-11-04T13:29:20.331Z,28.10
2017-11-04T13:31:47.817Z,26.80
2017-11-04T13:34:16.084Z,25.00
2017-11-04T13:36:44.318Z,25.37
2017-11-04T13:39:11.810Z,26.83
2017-11-04T13:41:40.067Z,24.70
2017-11-04T13:44:07.567Z,26.13
2017-11-04T13:46:35.034Z,26.77
2017-11-04T13:49:02.520Z,22.93
2017-11-04T13:51:30.005Z,27.40
2017-11-04T13:53:57.462Z,26.00
2017-11-04T13:56:24.944Z,29.27
2017-11-04T13:58:53.201Z,30.23
2017-11-04T14:01:20.659Z,26.50
2017-11-04T14:03:48.896Z,26.87
2017-11-04T14:06:16.402Z,28.07
2017-11-04T14:08:44.623Z,28.10
2017-11-04T14:11:12.125Z,29.60
2017-11-04T14:13:40.371Z,21.97
2017-11-04T14:16:07.844Z,14.57
2017-11-04T14:18:35.332Z,15.90
2017-11-04T14:21:02.800Z,13.77
2017-11-04T14:23:30.275Z,14.30
2017-11-04T14:25:57.743Z,9.33
2017-11-04T14:28:25.204Z,7.40
2017-11-04T14:30:52.688Z,7.50
2017-11-04T14:33:20.921Z,16.70
2017-11-04T14:35:48.399Z,8.43
2017-11-04T14:38:15.874Z,5.37
2017-11-04T14:40:43.323Z,8.03
2017-11-04T14:43:10.795Z,6.70
2017-11-04T14:45:39.042Z,5.90
2017-11-04T14:48:06.523Z,5.90
2017-11-04T14:50:34.773Z,9.20
2017-11-04T14:53:02.251Z,10.90
2017-11-04T14:55:29.714Z,6.83
2017-11-04T14:57:57.962Z,7.00
2017-11-04T15:00:25.428Z,7.87
2017-11-04T15:02:52.898Z,8.17
2017-11-04T15:05:21.167Z,5.40
2017-11-04T15:07:48.636Z,6.60
2017-11-04T15:10:16.898Z,11.20
2017-11-04T15:12:44.365Z,8.57
2017-11-04T15:15:12.619Z,6.17
2017-11-04T15:17:40.083Z,6.47
2017-11-04T15:20:07.822Z,4.83
2017-11-04T15:22:35.294Z,7.97
2017-11-04T15:25:02.771Z,9.40
2017-11-04T15:27:31.000Z,7.50
2017-11-04T15:29:58.489Z,5.13
2017-11-04T15:32:25.944Z,9.70
2017-11-04T15:34:53.424Z,5.83
2017-11-04T15:37:21.664Z,7.53
2017-11-04T15:39:49.140Z,6.00
2017-11-04T15:42:16.636Z,7.17
2017-11-04T15:44:44.094Z,6.43
2017-11-04T15:47:11.567Z,7.37
2017-11-04T15:49:39.070Z,6.93
2017-11-04T15:52:06.519Z,6.20
2017-11-04T15:54:34.775Z,7.17
2017-11-04T15:57:02.236Z,8.60
2017-11-04T15:59:29.702Z,7.83
2017-11-04T16:01:57.183Z,7.00
2017-11-04T16:04:25.422Z,5.37
2017-11-04T16:06:52.893Z,5.43
2017-11-04T16:09:21.156Z,9.40
2017-11-04T16:11:48.611Z,6.37
2017-11-04T16:14:16.105Z,6.10
2017-11-04T16:16:44.324Z,7.03
2017-11-04T16:19:11.782Z,8.10
2017-11-04T16:21:39.251Z,9.23
2017-11-04T16:24:06.723Z,9.20
2017-11-04T16:26:34.187Z,6.50
2017-11-04T16:29:02.439Z,7.97
2017-11-04T16:31:29.907Z,8.73
2017-11-04T16:33:57.408Z,7.47
2017-11-04T16:36:24.872Z,10.47
2017-11-04T16:38:52.360Z,7.80
2017-11-04T16:41:19.857Z,9.33
2017-11-04T16:43:48.091Z,9.43
2017-11-04T16:46:15.546Z,7.70
2017-11-04T16:48:43.024Z,6.73
2017-11-04T16:51:10.503Z,10.23
2017-11-04T16:53:38.781Z,9.63
2017-11-04T16:56:07.026Z,12.50
2017-11-04T16:58:34.495Z,6.67
2017-11-04T17:01:01.963Z,7.00
2017-11-04T17:03:30.200Z,7.10
2017-11-04T17:05:57.697Z,6.90
2017-11-04T17:08:25.920Z,8.30
2017-11-04T17:10:53.388Z,9.10
2017-11-04T17:13:20.866Z,9.73
2017-11-04T17:15:48.324Z,7.70
2017-11-04T17:18:17.298Z,13.13
2017-11-04T17:20:44.791Z,9.30
2017-11-04T17:23:13.020Z,8.10
2017-11-04T17:25:40.504Z,9.37
2017-11-04T17:28:07.999Z,7.73
2017-11-04T17:30:35.483Z,140.30
2017-11-04T17:33:03.005Z,145.73
2017-11-04T17:35:30.459Z,13.53
2017-11-04T17:37:57.936Z,7.00
2017-11-04T17:40:25.420Z,19.83
2017-11-04T17:42:52.889Z,9.47
2017-11-04T17:45:20.398Z,50.67
2017-11-04T17:47:47.857Z,8.90
2017-11-04T17:50:15.331Z,12.20
2017-11-04T17:52:42.818Z,8.83
2017-11-04T17:55:10.314Z,8.00
2017-11-04T17:57:37.811Z,11.73
2017-11-04T18:00:05.271Z,13.13
2017-11-04T18:02:32.735Z,13.07
2017-11-04T18:05:00.230Z,14.60
2017-11-04T18:07:28.477Z,10.10
2017-11-04T18:09:55.995Z,11.27
2017-11-04T18:12:23.472Z,12.20
2017-11-04T18:14:51.023Z,14.53
2017-11-04T18:17:18.568Z,11.07
2017-11-04T18:19:46.029Z,12.23
2017-11-04T18:22:13.529Z,12.50
2017-11-04T18:24:41.003Z,13.80
2017-11-04T18:27:09.369Z,17.13
2017-11-04T18:29:36.873Z,11.30
2017-11-04T18:32:04.355Z,12.30
2017-11-04T18:34:31.857Z,10.53
2017-11-04T18:37:00.096Z,9.50
2017-11-04T18:39:27.670Z,8.97
2017-11-04T18:41:55.187Z,12.10
2017-11-04T18:44:22.678Z,10.87
2017-11-04T18:46:50.175Z,11.63
2017-11-04T18:49:17.663Z,12.27
2017-11-04T18:51:45.140Z,11.00
2017-11-04T18:54:12.615Z,9.30
2017-11-04T18:56:40.116Z,9.70
2017-11-04T18:59:07.599Z,9.47
2017-11-04T19:01:35.097Z,14.63
2017-11-04T19:04:03.412Z,9.03
2017-11-04T19:06:30.886Z,13.73
2017-11-04T19:08:58.365Z,9.77
2017-11-04T19:11:25.985Z,12.17
2017-11-04T19:13:53.483Z,9.70
2017-11-04T19:16:20.994Z,12.30
2017-11-04T19:18:48.461Z,22.97
2017-11-04T19:21:15.983Z,16.23
2017-11-04T19:23:44.220Z,10.80
2017-11-04T19:26:11.713Z,10.63
2017-11-04T19:28:40.043Z,13.40
2017-11-04T19:31:07.524Z,13.80
2017-11-04T19:33:35.019Z,13.10
2017-11-04T19:36:02.576Z,11.50
2017-11-04T19:38:30.795Z,10.77
2017-11-04T19:40:58.286Z,13.33
2017-11-04T19:43:26.687Z,14.27
2017-11-04T19:45:54.172Z,11.57
2017-11-04T19:48:22.462Z,12.50
2017-11-04T19:50:49.940Z,13.23
2017-11-04T19:53:17.426Z,13.87
2017-11-04T19:55:44.904Z,12.83
2017-11-04T19:58:12.385Z,13.37
2017-11-04T20:00:39.923Z,14.83
2017-11-04T20:03:07.404Z,13.23
2017-11-04T20:05:34.888Z,12.73
2017-11-04T20:08:03.164Z,12.80
2017-11-04T20:10:30.615Z,14.63
2017-11-04T20:12:58.083Z,13.57
2017-11-04T20:15:26.452Z,12.10
2017-11-04T20:17:54.712Z,12.73
2017-11-04T20:20:22.196Z,14.50
2017-11-04T20:22:50.440Z,14.23
2017-11-04T20:25:17.924Z,12.53
2017-11-04T20:27:46.170Z,15.80
2017-11-04T20:30:13.631Z,13.73
2017-11-04T20:32:41.137Z,15.53
2017-11-04T20:35:08.708Z,15.57
2017-11-04T20:37:36.167Z,16.40
2017-11-04T20:40:03.657Z,15.27
2017-11-04T20:42:31.131Z,21.03
2017-11-04T20:44:58.590Z,15.63
2017-11-04T20:47:26.083Z,19.00
2017-11-04T20:49:53.555Z,14.00
2017-11-04T20:52:21.108Z,13.53
2017-11-04T20:54:48.591Z,12.40
2017-11-04T20:57:16.185Z,16.50
2017-11-04T20:59:44.443Z,14.40
2017-11-04T21:02:11.944Z,14.00
2017-11-04T21:04:39.513Z,15.97
2017-11-04T21:07:06.971Z,18.83
2017-11-04T21:09:34.479Z,18.13
2017-11-04T21:12:01.966Z,11.80
2017-11-04T21:14:29.454Z,13.57
2017-11-04T21:16:57.001Z,13.10
2017-11-04T21:19:24.479Z,14.20
2017-11-04T21:21:51.976Z,12.33
2017-11-04T21:24:20.211Z,12.87
2017-11-04T21:26:47.689Z,13.27
2017-11-04T21:29:15.510Z,13.87
2017-11-04T21:31:42.972Z,14.67
2017-11-04T21:34:10.462Z,15.20
2017-11-04T21:36:37.942Z,13.80
2017-11-04T21:39:05.419Z,18.53
2017-11-04T21:41:32.899Z,15.37
2017-11-04T21:44:00.381Z,15.20
2017-11-04T21:46:27.976Z,14.33
2017-11-04T21:48:56.207Z,14.80
2017-11-04T21:51:23.699Z,13.30
2017-11-04T21:53:51.939Z,14.17
2017-11-04T21:56:19.439Z,14.77
2017-11-04T21:58:47.671Z,15.80
2017-11-04T22:01:15.196Z,15.43
2017-11-04T22:03:42.671Z,15.70
2017-11-04T22:06:10.131Z,15.67
2017-11-04T22:08:37.620Z,14.83
2017-11-04T22:11:05.129Z,16.73
2017-11-04T22:13:32.610Z,14.20
2017-11-04T22:16:00.113Z,15.03
2017-11-04T22:18:28.358Z,15.20
2017-11-04T22:20:55.850Z,15.53
2017-11-04T22:23:24.089Z,15.57
2017-11-04T22:25:51.717Z,19.90
2017-11-04T22:28:19.201Z,21.47
2017-11-04T22:30:46.666Z,20.97
2017-11-04T22:33:14.161Z,36.30
2017-11-04T22:35:42.407Z,44.43
2017-11-04T22:38:09.937Z,64.27
2017-11-04T22:40:37.385Z,31.13
2017-11-04T22:43:05.450Z,39.70
2017-11-04T22:45:32.935Z,28.20
2017-11-04T22:48:00.435Z,20.83
2017-11-04T22:50:28.688Z,33.77
2017-11-04T22:52:56.923Z,31.60
2017-11-04T22:55:24.408Z,35.60
2017-11-04T22:57:51.868Z,28.83
2017-11-04T23:00:19.372Z,21.63
2017-11-04T23:02:46.844Z,15.40
2017-11-04T23:05:14.331Z,20.43
2017-11-04T23:07:41.816Z,18.07
2017-11-04T23:10:10.046Z,15.43
2017-11-04T23:12:37.528Z,21.83
2017-11-04T23:15:05.007Z,25.37
2017-11-04T23:17:33.265Z,27.07
2017-11-04T23:20:00.759Z,25.47
2017-11-04T23:22:28.341Z,24.80
2017-11-04T23:24:55.828Z,24.00
2017-11-04T23:27:23.331Z,24.70
2017-11-04T23:29:50.812Z,29.17
2017-11-04T23:32:18.288Z,30.17
2017-11-04T23:34:45.812Z,29.83
2017-11-04T23:37:13.272Z,29.07
2017-11-04T23:39:40.891Z,29.20
2017-11-04T23:42:09.137Z,30.90
2017-11-04T23:44:36.607Z,27.57
2017-11-04T23:47:04.169Z,31.33
2017-11-04T23:49:31.631Z,31.27
2017-11-04T23:51:59.111Z,28.30
2017-11-04T23:54:26.586Z,35.23
2017-11-04T23:56:54.055Z,31.47
2017-11-04T23:59:21.535Z,34.47
